Saturday, January 20, 2018, 10:08 AM EST
Back to Local

KLCI, Laconia, Laconia Municipal Airport

Location: Laconia, NH, United States Lat: 43.567
Local Time: 10:08 AM EST (15:08 GMT) Lon: -71.417
Time Zone: US/Eastern Elev: 544 ft

Show me the last for .
Show Decoded

2018-01-20 08:56 METAR KLCI 201356Z AUTO 23009KT 10SM CLR 00/M06 A2960 RMK AO2 SLP041 T00001061
                 FZRANO =
2018-01-20 07:56 METAR KLCI 201256Z AUTO 23009KT 10SM CLR M02/M06 A2961 RMK AO2 SLP045 T10221061
                 FZRANO =
2018-01-20 06:56 METAR KLCI 201156Z AUTO 22009KT 10SM CLR M02/M06 A2960 RMK AO2 SLP044 T10221061
                 11022 21033 56028 FZRANO =
2018-01-20 05:56 METAR KLCI 201056Z AUTO 25007KT 10SM FEW120 M02/M06 A2963 RMK AO2 SLP051
                 T10221061 FZRANO =
2018-01-20 04:56 METAR KLCI 200956Z AUTO 24005KT 10SM FEW120 M03/M06 A2965 RMK AO2 SLP061
                 T10281061 FZRANO =
2018-01-20 03:56 METAR KLCI 200856Z AUTO 27003KT 10SM CLR M03/M07 A2969 RMK AO2 SLP073 T10331067
                 58023 FZRANO =
2018-01-20 01:56 METAR KLCI 200656Z AUTO 25005KT 10SM CLR M03/M06 A2975 RMK AO2 SLP093 T10331061
                 FZRANO =
2018-01-20 00:56 METAR KLCI 200556Z AUTO 24004KT 10SM CLR M03/M06 A2976 RMK AO2 SLP095 T10281061
                 11028 21033 58033 FZRANO =
2018-01-19 23:56 METAR KLCI 200456Z AUTO 23005KT 10SM CLR M03/M06 A2980 RMK AO2 SLP110 T10281061
                 410061094 FZRANO =
2018-01-19 22:56 METAR KLCI 200356Z AUTO 24006KT 10SM CLR M03/M06 A2983 RMK AO2 SLP121 T10331061
                 FZRANO =
2018-01-19 21:56 METAR KLCI 200256Z AUTO 24008KT 10SM BKN034 M03/M07 A2985 RMK AO2 SLP130
                 T10281067 58010 FZRANO =
2018-01-19 20:56 METAR KLCI 200156Z AUTO 23006KT 10SM OVC036 M03/M06 A2987 RMK AO2 SLP136
                 T10281061 FZRANO =
2018-01-19 19:56 METAR KLCI 200056Z AUTO 22005KT 10SM OVC036 M03/M06 A2988 RMK AO2 SLP138
                 T10281061 FZRANO =
2018-01-19 18:56 METAR KLCI 192356Z AUTO 25004KT 10SM OVC030 M03/M06 A2988 RMK AO2 SLP138
                 T10281061 11006 21028 55003 FZRANO =
2018-01-19 17:56 METAR KLCI 192256Z AUTO 22004KT 10SM OVC032 M03/M06 A2988 RMK AO2 SLP135
                 T10281061 FZRANO =
2018-01-19 16:56 METAR KLCI 192156Z AUTO 20005KT 10SM OVC032 M02/M06 A2988 RMK AO2 SLP138
                 T10221061 FZRANO =
2018-01-19 15:56 METAR KLCI 192056Z AUTO 25007KT 10SM OVC032 M02/M06 A2989 RMK AO2 SLP142
                 T10221061 53004 FZRANO =
2018-01-19 15:16 METAR KLCI 192016Z AUTO 23008KT 10SM FEW024 OVC032 M02/M06 A2988 RMK AO2 FZRANO
                 =
2018-01-19 14:56 METAR KLCI 191956Z AUTO 25007KT 10SM BKN024 OVC030 M02/M06 A2988 RMK AO2 SLP137
                 T10171061 FZRANO =
2018-01-19 13:56 METAR KLCI 191856Z AUTO 27006KT 10SM OVC026 M01/M06 A2989 RMK AO2 SLP140
                 T10111061 FZRANO =
2018-01-19 13:37 METAR KLCI 191837Z AUTO 28004KT 10SM OVC030 M01/M06 A2988 RMK AO2 FZRANO =
2018-01-19 12:56 METAR KLCI 191756Z AUTO VRB05KT 10SM OVC028 M01/M06 A2988 RMK AO2 SLP138 60000
                 T10061061 11006 21056 56014 FZRANO =
2018-01-19 12:48 METAR KLCI 191748Z AUTO 25006KT 10SM OVC028 M01/M07 A2988 RMK AO2 FZRANO =
2018-01-19 11:56 METAR KLCI 191656Z AUTO 24006KT 10SM OVC030 M01/M07 A2990 RMK AO2 SLP144
                 T10111067 FZRANO =
2018-01-19 10:56 METAR KLCI 191556Z AUTO 22006KT 10SM OVC032 M02/M07 A2992 RMK AO2 SLP153
                 T10171067 FZRANO =

Support USWX by starting your Amazon purchase here.